Time;durP1;ratioP1;P1;durP2;ratioP2;P2;SDS_P1;SDS_P2;PMS_P1;PMS_P2;Temp;Humidity;BMP_temperature;BMP_pressure;BME280_temperature;BME280_humidity;BME280_pressure;Samples;Min_cycle;Max_cycle;Signal;HPM_P1;HPM_P2
2021/12/02 00:01:25;;;;;;;31.30;21.47;;;;;;;5.11;63.80;94137.41;5070543;28;20448;-75
2021/12/02 00:03:51;;;;;;;32.93;21.27;;;;;;;5.40;63.34;94139.28;5056778;28;20456;-75
2021/12/02 00:06:19;;;;;;;23.40;19.00;;;;;;;5.57;62.24;94137.38;5056724;28;20437;-74
2021/12/02 00:08:46;;;;;;;27.60;19.40;;;;;;;5.87;61.72;94138.22;5050842;28;20175;-74
2021/12/02 00:11:13;;;;;;;24.03;19.67;;;;;;;5.26;63.20;94141.66;5069706;28;20787;-74
2021/12/02 00:14:06;;;;;;;25.57;20.70;;;;;;;5.22;63.08;94140.41;5068776;28;20606;-74
2021/12/02 00:22:01;;;;;;;25.70;19.93;;;;;;;4.87;64.84;94147.75;5060916;28;20474;-74
2021/12/02 00:24:33;;;;;;;30.73;22.10;;;;;;;5.16;63.75;94142.88;5056683;28;20421;-75
2021/12/02 00:27:00;;;;;;;29.23;21.70;;;;;;;4.92;64.60;94144.66;5069620;28;20459;-75
2021/12/02 00:29:29;;;;;;;30.13;20.70;;;;;;;5.35;63.30;94146.78;5068944;28;20416;-74
2021/12/02 00:31:56;;;;;;;29.70;21.70;;;;;;;5.12;63.99;94146.78;5067859;28;20428;-75
2021/12/02 00:34:22;;;;;;;29.43;19.03;;;;;;;4.79;65.17;94147.81;5059541;28;20474;-74
2021/12/02 00:36:48;;;;;;;28.67;19.83;;;;;;;4.92;64.48;94151.63;5068934;28;20527;-74
2021/12/02 00:39:19;;;;;;;26.23;17.90;;;;;;;4.88;64.53;94159.75;5050840;28;20428;-74
2021/12/02 00:41:46;;;;;;;25.70;18.93;;;;;;;5.11;64.08;94153.78;5059101;28;20518;-75
2021/12/02 00:44:13;;;;;;;24.07;17.60;;;;;;;5.38;63.31;94152.44;5067867;28;20429;-74
2021/12/02 00:46:39;;;;;;;22.90;17.10;;;;;;;5.34;63.21;94138.19;5057629;28;20461;-76
2021/12/02 00:49:11;;;;;;;21.07;16.67;;;;;;;5.29;63.34;94140.50;5064728;28;20417;-75
2021/12/02 00:51:37;;;;;;;33.10;17.87;;;;;;;5.52;62.62;94130.13;5057478;28;20456;-74
2021/12/02 00:54:08;;;;;;;28.60;17.67;;;;;;;5.26;63.28;94136.47;5064199;28;20444;-75
2021/12/02 00:56:34;;;;;;;25.50;17.70;;;;;;;4.81;65.42;94147.66;5057351;28;20421;-76
2021/12/02 00:59:00;;;;;;;23.90;17.97;;;;;;;5.17;64.01;94136.72;5064684;28;20425;-76
2021/12/02 01:01:27;;;;;;;23.83;18.03;;;;;;;4.61;64.92;94137.72;5066216;28;20424;-76
2021/12/02 01:03:58;;;;;;;27.10;19.70;;;;;;;4.91;63.97;94148.22;5067103;28;20417;-77
2021/12/02 01:06:24;;;;;;;29.00;20.07;;;;;;;5.00;64.16;94149.00;5067119;28;20465;-75
2021/12/02 01:08:50;;;;;;;28.50;16.23;;;;;;;4.62;64.97;94164.44;5067628;28;20428;-75
2021/12/02 01:11:17;;;;;;;24.33;14.10;;;;;;;4.63;64.68;94159.09;5062923;28;20429;-76
2021/12/02 01:13:43;;;;;;;23.40;17.13;;;;;;;4.50;66.07;94146.66;5061424;28;20436;-75
2021/12/02 01:16:08;;;;;;;20.93;13.03;;;;;;;4.11;67.28;94137.09;5061596;28;20524;-75
2021/12/02 01:18:34;;;;;;;15.40;11.37;;;;;;;4.81;65.11;94134.69;5067096;28;20405;-75
2021/12/02 01:21:02;;;;;;;17.57;13.50;;;;;;;4.82;64.60;94129.34;5068640;28;20174;-75
2021/12/02 01:23:30;;;;;;;20.90;14.47;;;;;;;4.97;64.35;94146.72;5061708;28;20191;-75
2021/12/02 01:26:04;;;;;;;19.07;14.93;;;;;;;4.79;64.70;94145.22;5047277;28;20445;-76
2021/12/02 01:28:30;;;;;;;18.80;15.93;;;;;;;4.54;66.11;94148.94;5048329;28;20512;-75
2021/12/02 01:30:56;;;;;;;26.27;17.97;;;;;;;4.72;65.35;94154.66;5067414;28;20433;-76
2021/12/02 01:33:24;;;;;;;25.27;17.73;;;;;;;4.68;65.91;94145.59;5060258;28;20441;-75
2021/12/02 01:36:01;;;;;;;22.53;17.93;;;;;;;4.73;65.96;94147.69;5066678;28;20425;-74
2021/12/02 01:38:29;;;;;;;17.90;15.20;;;;;;;4.65;66.54;94164.09;5063059;28;20457;-75
2021/12/02 01:40:59;;;;;;;20.60;16.70;;;;;;;5.26;64.75;94151.25;5055875;28;20525;-75
2021/12/02 01:43:51;;;;;;;22.17;17.33;;;;;;;5.25;64.69;94155.63;5046485;28;20387;-75
2021/12/02 01:46:19;;;;;;;17.97;15.30;;;;;;;5.24;64.66;94148.81;5060218;28;20429;-75
2021/12/02 01:49:04;;;;;;;23.47;16.17;;;;;;;5.16;64.50;94154.06;5063639;28;20451;-75
2021/12/02 01:51:40;;;;;;;19.40;16.17;;;;;;;4.82;65.68;94150.06;5062525;28;20461;-74
2021/12/02 01:54:09;;;;;;;24.53;17.53;;;;;;;5.11;64.49;94133.03;5045805;28;20433;-75
2021/12/02 01:56:42;;;;;;;17.53;13.17;;;;;;;4.90;64.83;94136.25;5046117;28;20465;-75
2021/12/02 01:59:17;;;;;;;17.93;12.93;;;;;;;5.03;64.45;94125.31;5046393;28;20421;-75
2021/12/02 02:01:45;;;;;;;19.60;14.67;;;;;;;4.96;64.37;94119.22;5059423;28;20440;-75
2021/12/02 02:04:11;;;;;;;19.30;14.03;;;;;;;5.43;62.71;94115.59;5046260;28;20425;-75
2021/12/02 02:06:49;;;;;;;15.47;13.47;;;;;;;4.86;64.36;94107.28;5045927;28;20489;-75
2021/12/02 02:09:15;;;;;;;21.70;14.73;;;;;;;4.97;64.43;94100.88;5048805;28;20433;-75
2021/12/02 02:11:41;;;;;;;18.37;13.40;;;;;;;4.84;64.54;94100.66;5047199;28;20449;-75
2021/12/02 02:14:08;;;;;;;17.47;13.37;;;;;;;5.05;63.94;94094.84;5060803;28;20186;-75
2021/12/02 02:16:35;;;;;;;10.73;7.40;;;;;;;5.17;63.34;94090.03;5065537;28;20170;-75
2021/12/02 02:19:01;;;;;;;17.00;13.30;;;;;;;5.15;63.55;94085.03;5046155;28;20477;-75
2021/12/02 02:21:27;;;;;;;17.40;13.57;;;;;;;5.30;63.65;94098.03;5044652;28;20508;-75
2021/12/02 02:23:57;;;;;;;18.20;12.70;;;;;;;5.11;63.98;94107.09;5046130;28;20441;-74
2021/12/02 02:26:30;;;;;;;21.57;13.23;;;;;;;5.49;62.54;94099.31;5050602;28;20442;-74
2021/12/02 02:28:57;;;;;;;18.60;13.43;;;;;;;5.07;63.44;94096.25;5044594;28;20409;-74
2021/12/02 02:31:25;;;;;;;17.53;12.63;;;;;;;5.37;62.79;94092.94;5045884;28;20438;-75
2021/12/02 02:33:51;;;;;;;21.67;13.67;;;;;;;5.14;63.17;94103.34;5045620;28;20418;-74
2021/12/02 02:36:21;;;;;;;16.73;12.90;;;;;;;5.13;63.67;94115.50;5059758;28;20449;-74
2021/12/02 02:39:00;;;;;;;15.23;12.57;;;;;;;5.12;63.64;94120.88;5064184;28;20421;-75
2021/12/02 02:41:33;;;;;;;15.63;13.50;;;;;;;5.05;63.94;94118.97;5064329;28;20444;-75
2021/12/02 02:44:00;;;;;;;22.10;13.13;;;;;;;5.04;64.68;94119.13;5057888;28;20448;-75
2021/12/02 02:46:28;;;;;;;19.73;13.67;;;;;;;4.70;65.66;94117.72;5045116;28;20422;-75
2021/12/02 02:48:54;;;;;;;17.53;13.90;;;;;;;4.93;65.17;94116.94;5044819;28;20414;-75
2021/12/02 02:51:20;;;;;;;19.10;14.57;;;;;;;5.03;64.63;94110.56;5045511;28;20485;-75
2021/12/02 02:53:51;;;;;;;19.47;14.20;;;;;;;4.78;65.49;94122.06;5045827;28;20449;-75
2021/12/02 02:56:18;;;;;;;17.50;13.90;;;;;;;5.04;64.52;94119.94;5045181;28;20167;-74
2021/12/02 03:04:59;;;;;;;21.77;17.30;;;;;;;5.17;64.59;94090.03;5065374;28;20414;-75
2021/12/02 03:11:57;;;;;;;22.43;15.77;;;;;;;5.11;64.86;94101.91;5062316;28;20472;-75
2021/12/02 03:14:34;;;;;;;19.90;16.00;;;;;;;5.11;64.89;94106.31;5064855;28;20425;-75
2021/12/02 03:17:00;;;;;;;20.17;15.20;;;;;;;5.48;63.50;94097.69;5049054;28;20932;-75
2021/12/02 03:19:29;;;;;;;20.50;14.33;;;;;;;5.35;62.98;94102.69;5044969;28;20470;-75
2021/12/02 03:21:56;;;;;;;20.97;14.20;;;;;;;5.21;64.10;94097.28;5043502;28;20180;-74
2021/12/02 03:24:23;;;;;;;20.43;11.10;;;;;;;5.23;63.70;94089.31;5044606;28;20440;-74
2021/12/02 03:26:49;;;;;;;16.90;13.00;;;;;;;5.35;63.58;94092.31;5059041;28;20563;-74
2021/12/02 03:29:15;;;;;;;19.57;15.17;;;;;;;5.19;63.91;94094.06;5064476;28;20416;-75
2021/12/02 03:31:40;;;;;;;17.03;14.33;;;;;;;5.09;64.50;94099.50;5064617;28;20527;-74
2021/12/02 03:34:07;;;;;;;16.57;12.30;;;;;;;5.49;63.47;94094.13;5063584;28;20417;-74
2021/12/02 03:36:33;;;;;;;16.37;13.17;;;;;;;5.40;63.52;94090.00;5047387;28;20245;-74
2021/12/02 03:38:59;;;;;;;18.20;14.10;;;;;;;4.95;64.28;94087.28;5044381;28;20421;-74
2021/12/02 03:41:25;;;;;;;16.47;12.80;;;;;;;5.13;63.73;94079.19;5047615;28;20438;-74
2021/12/02 03:43:51;;;;;;;18.83;14.87;;;;;;;4.94;63.93;94067.53;5043220;28;20236;-74
2021/12/02 03:46:19;;;;;;;14.00;9.57;;;;;;;5.00;63.26;94071.22;5059719;28;20440;-74
2021/12/02 03:48:45;;;;;;;19.13;13.30;;;;;;;4.91;63.54;94082.63;5064181;28;20461;-74
2021/12/02 03:51:11;;;;;;;19.73;13.63;;;;;;;4.83;63.81;94088.66;5056605;28;20452;-74
2021/12/02 03:53:37;;;;;;;16.60;13.03;;;;;;;5.30;62.23;94086.84;5045491;28;20445;-74
2021/12/02 03:56:06;;;;;;;16.80;12.50;;;;;;;5.28;62.30;94072.25;5062988;28;20503;-74
2021/12/02 03:58:32;;;;;;;14.63;13.10;;;;;;;5.01;63.58;94085.78;5064549;28;20204;-75
2021/12/02 04:00:57;;;;;;;18.67;12.80;;;;;;;5.07;62.98;94083.31;5064319;28;20935;-75
2021/12/02 04:03:23;;;;;;;16.30;12.77;;;;;;;5.59;61.18;94073.91;5057737;28;20433;-75
2021/12/02 04:05:48;;;;;;;18.20;12.90;;;;;;;5.08;62.64;94065.94;5063917;28;20201;-75
2021/12/02 04:08:14;;;;;;;13.53;11.60;;;;;;;5.24;62.59;94067.63;5064300;28;20190;-75
2021/12/02 04:10:41;;;;;;;13.50;11.47;;;;;;;5.21;62.40;94073.94;5062994;28;20174;-75
2021/12/02 04:13:30;;;;;;;18.20;12.73;;;;;;;5.07;62.93;94077.31;5057627;28;20178;-76
2021/12/02 04:16:09;;;;;;;14.67;11.93;;;;;;;5.33;62.62;94079.53;5064403;28;20486;-75
2021/12/02 04:18:34;;;;;;;16.20;11.90;;;;;;;4.84;64.02;94079.94;5064226;28;20408;-75
2021/12/02 04:21:00;;;;;;;20.33;13.17;;;;;;;5.17;63.19;94079.66;5060528;28;20436;-75
2021/12/02 04:23:25;;;;;;;16.70;13.97;;;;;;;4.44;65.29;94080.00;5044052;28;20218;-75
2021/12/02 04:25:51;;;;;;;15.83;13.00;;;;;;;5.11;63.51;94081.16;5044646;28;20263;-75
2021/12/02 04:28:16;;;;;;;17.90;11.37;;;;;;;5.41;62.13;94095.00;5044006;28;20223;-75
2021/12/02 04:30:42;;;;;;;18.10;13.60;;;;;;;5.06;62.80;94073.09;5050734;28;20182;-75
2021/12/02 04:33:07;;;;;;;15.67;12.17;;;;;;;5.12;63.25;94067.19;5056170;28;20186;-75
2021/12/02 04:35:33;;;;;;;15.77;14.13;;;;;;;5.19;62.39;94054.34;5052952;28;20175;-75
2021/12/02 04:37:58;;;;;;;16.47;13.20;;;;;;;5.04;63.06;94052.53;5043052;28;20642;-74
2021/12/02 04:40:24;;;;;;;15.10;13.50;;;;;;;4.88;63.72;94066.44;5051797;28;20179;-75
2021/12/02 04:42:50;;;;;;;16.70;13.50;;;;;;;5.43;62.75;94069.69;5048662;28;20186;-75
2021/12/02 04:45:15;;;;;;;17.23;13.07;;;;;;;5.79;61.46;94063.03;5057013;28;20429;-75
2021/12/02 04:47:41;;;;;;;15.00;13.40;;;;;;;5.46;61.72;94064.16;5065423;28;20203;-74
2021/12/02 04:50:09;;;;;;;16.23;13.10;;;;;;;5.66;62.08;94058.44;5066307;28;20182;-75
2021/12/02 04:52:35;;;;;;;16.20;12.30;;;;;;;5.78;61.09;94066.59;5047703;28;20168;-76
2021/12/02 04:55:01;;;;;;;19.37;12.73;;;;;;;5.79;60.44;94056.03;5047006;28;20445;-75
2021/12/02 04:57:26;;;;;;;15.50;11.30;;;;;;;5.76;61.23;94047.78;5050027;28;20429;-75
2021/12/02 04:59:52;;;;;;;19.93;12.67;;;;;;;5.16;62.76;94052.09;5055838;28;20196;-75
2021/12/02 05:02:18;;;;;;;16.53;13.83;;;;;;;5.61;61.75;94043.38;5065247;28;20197;-75
2021/12/02 05:04:43;;;;;;;15.57;13.37;;;;;;;5.81;61.12;94041.06;5066564;28;20182;-75
2021/12/02 05:07:09;;;;;;;17.50;13.60;;;;;;;5.24;62.47;94037.28;5060441;28;20232;-75
2021/12/02 05:09:34;;;;;;;20.43;12.53;;;;;;;5.39;62.62;94026.13;5067259;28;20184;-74
2021/12/02 05:12:00;;;;;;;19.67;14.50;;;;;;;5.45;61.85;94025.41;5047149;28;20222;-75
2021/12/02 05:14:25;;;;;;;19.50;14.37;;;;;;;5.43;63.27;94029.97;5046962;28;20179;-75
2021/12/02 05:16:51;;;;;;;16.03;13.23;;;;;;;5.21;62.74;94032.44;5047542;28;20183;-75
2021/12/02 05:19:16;;;;;;;17.23;12.80;;;;;;;5.36;62.71;94032.47;5046957;28;20341;-75
2021/12/02 05:21:42;;;;;;;18.53;15.30;;;;;;;5.50;62.43;94038.63;5050367;28;20678;-75
2021/12/02 05:24:07;;;;;;;17.27;13.43;;;;;;;5.47;62.27;94041.63;5047299;28;20210;-75
2021/12/02 05:26:34;;;;;;;15.67;12.87;;;;;;;5.53;61.78;94030.50;5056556;28;20183;-75
2021/12/02 05:28:59;;;;;;;15.73;13.93;;;;;;;5.43;61.75;94033.38;5054225;28;20314;-75
2021/12/02 05:31:25;;;;;;;26.50;17.33;;;;;;;5.22;62.67;94035.88;5057140;28;20492;-75
2021/12/02 05:33:51;;;;;;;21.70;17.23;;;;;;;5.58;61.26;94025.59;5062720;28;20193;-75
2021/12/02 05:36:17;;;;;;;17.33;15.00;;;;;;;4.65;63.94;94034.53;5060794;28;20194;-75
2021/12/02 05:38:42;;;;;;;24.00;16.47;;;;;;;5.16;62.96;94027.00;5056190;28;20428;-75
2021/12/02 05:41:08;;;;;;;17.00;14.80;;;;;;;5.12;62.91;94028.31;5053207;28;20214;-75
2021/12/02 05:43:34;;;;;;;18.17;16.10;;;;;;;5.33;62.99;94034.59;5054807;28;20261;-75
2021/12/02 05:45:59;;;;;;;22.87;17.27;;;;;;;5.38;62.46;94040.06;5059927;28;20182;-75
2021/12/02 05:48:25;;;;;;;22.10;16.73;;;;;;;5.07;63.41;94033.22;5062492;28;20205;-75
2021/12/02 05:50:51;;;;;;;17.80;15.80;;;;;;;5.12;63.28;94030.91;5061920;28;20232;-75
2021/12/02 05:53:17;;;;;;;20.17;17.17;;;;;;;5.28;62.72;94035.16;5055977;28;20183;-75
2021/12/02 05:55:43;;;;;;;17.90;15.33;;;;;;;5.50;62.86;94033.44;5062466;28;20444;-75
2021/12/02 05:58:11;;;;;;;21.33;17.13;;;;;;;5.45;62.21;94035.78;5060720;28;20492;-74
2021/12/02 06:00:37;;;;;;;22.00;16.27;;;;;;;5.25;62.99;94040.69;5062306;28;20437;-74
2021/12/02 06:03:03;;;;;;;18.47;16.27;;;;;;;5.21;63.00;94042.81;5058237;28;20447;-75
2021/12/02 06:05:29;;;;;;;19.30;17.30;;;;;;;5.37;62.54;94035.84;5060588;28;20503;-75
2021/12/02 06:07:58;;;;;;;25.40;19.37;;;;;;;5.34;63.33;94049.19;5060115;28;20487;-75
2021/12/02 06:10:24;;;;;;;22.17;17.83;;;;;;;5.37;62.83;94043.63;5060792;28;20166;-75
2021/12/02 06:12:50;;;;;;;23.37;16.97;;;;;;;5.08;63.32;94047.78;5058245;28;20857;-75
2021/12/02 06:15:16;;;;;;;28.00;17.93;;;;;;;5.74;62.17;94040.19;5061264;28;20433;-75
2021/12/02 06:17:45;;;;;;;22.03;19.10;;;;;;;5.20;63.43;94037.81;5063369;28;20527;-75
2021/12/02 06:20:12;;;;;;;25.70;21.03;;;;;;;5.18;63.91;94040.59;5055671;28;20461;-75
2021/12/02 06:22:38;;;;;;;27.77;22.27;;;;;;;5.51;63.41;94044.66;5063450;28;20457;-75
2021/12/02 06:27:48;;;;;;;29.40;21.47;;;;;;;5.50;63.31;94056.81;5052955;28;20587;-75
2021/12/02 06:30:15;;;;;;;25.93;23.13;;;;;;;5.60;63.55;94051.38;5059158;28;21194;-75
2021/12/02 06:32:41;;;;;;;30.20;19.90;;;;;;;5.52;62.79;94047.09;5060147;28;20437;-75
2021/12/02 06:35:08;;;;;;;34.70;23.43;;;;;;;5.60;63.08;94043.59;5056709;28;20444;-75
2021/12/02 06:37:34;;;;;;;34.40;26.00;;;;;;;5.51;63.43;94049.84;5061009;28;20218;-74
2021/12/02 06:39:59;;;;;;;37.57;30.10;;;;;;;5.17;64.21;94057.13;5057179;28;20457;-75
2021/12/02 06:42:25;;;;;;;43.00;34.40;;;;;;;5.47;63.78;94065.75;5058939;28;20433;-75
2021/12/02 06:44:50;;;;;;;40.90;30.87;;;;;;;5.98;62.42;94065.09;5058793;28;20329;-75
2021/12/02 06:47:16;;;;;;;46.87;35.67;;;;;;;5.72;63.29;94060.31;5059414;28;20267;-74
2021/12/02 06:49:41;;;;;;;47.47;37.97;;;;;;;5.89;63.26;94058.34;5053779;28;20174;-75
2021/12/02 06:52:13;;;;;;;34.00;29.10;;;;;;;5.32;63.90;94051.97;5056561;28;20184;-75
2021/12/02 06:54:39;;;;;;;40.00;34.70;;;;;;;5.81;62.59;94045.47;5053226;28;20209;-75
2021/12/02 06:57:05;;;;;;;42.33;36.27;;;;;;;5.78;63.03;94040.63;5058547;28;20453;-75
2021/12/02 06:59:31;;;;;;;45.27;34.87;;;;;;;5.76;63.07;94050.38;5050372;28;20421;-75
2021/12/02 07:01:56;;;;;;;41.77;35.00;;;;;;;6.01;62.57;94051.75;5056818;28;20428;-75
2021/12/02 07:04:22;;;;;;;49.17;38.20;;;;;;;6.06;62.61;94048.59;5058984;28;20182;-75
2021/12/02 07:06:48;;;;;;;50.10;38.93;;;;;;;6.01;62.40;94056.94;5060534;28;20195;-75
2021/12/02 07:09:13;;;;;;;61.73;45.40;;;;;;;6.03;62.80;94049.78;5053084;28;20175;-75
2021/12/02 07:11:39;;;;;;;58.27;43.03;;;;;;;6.36;61.32;94038.97;5058708;28;20194;-75
2021/12/02 07:14:12;;;;;;;55.23;44.33;;;;;;;5.67;63.70;94039.28;5064578;28;20610;-76
2021/12/02 07:16:38;;;;;;;56.30;41.70;;;;;;;6.04;62.35;94048.00;5060798;28;20182;-75
2021/12/02 07:19:08;;;;;;;55.27;42.73;;;;;;;6.29;62.02;94047.69;5059646;28;20470;-75
2021/12/02 07:21:39;;;;;;;45.00;37.03;;;;;;;6.36;61.69;94044.16;5057093;28;20432;-75
2021/12/02 07:24:06;;;;;;;45.47;37.60;;;;;;;6.20;62.52;94045.19;5058841;28;20433;-74
2021/12/02 07:26:33;;;;;;;43.03;34.67;;;;;;;6.76;61.24;94044.56;5059635;28;20437;-75
2021/12/02 07:28:59;;;;;;;40.40;29.63;;;;;;;6.71;61.34;94035.72;5056937;28;20429;-75
2021/12/02 07:31:30;;;;;;;28.63;22.17;;;;;;;6.86;59.34;94038.25;5059234;28;20487;-75
2021/12/02 07:33:57;;;;;;;33.83;24.30;;;;;;;6.63;60.32;94037.44;5060142;28;20205;-74
2021/12/02 07:36:23;;;;;;;32.40;23.90;;;;;;;6.86;58.88;94043.47;5053109;28;20444;-75
2021/12/02 07:38:49;;;;;;;32.03;28.03;;;;;;;6.91;59.35;94051.50;5059032;28;20425;-75
2021/12/02 07:41:14;;;;;;;33.60;24.83;;;;;;;6.91;59.02;94039.31;5050159;28;20424;-75
2021/12/02 07:43:40;;;;;;;30.17;26.13;;;;;;;6.75;59.75;94037.75;5058750;28;20179;-75
2021/12/02 07:46:06;;;;;;;29.80;24.97;;;;;;;6.87;59.42;94039.84;5058060;28;20167;-75
2021/12/02 07:48:31;;;;;;;35.47;28.57;;;;;;;7.01;58.98;94039.78;5062471;28;20194;-75
2021/12/02 07:51:05;;;;;;;30.33;25.90;;;;;;;7.14;58.90;94033.91;5059489;28;20434;-75
2021/12/02 07:53:31;;;;;;;29.67;26.17;;;;;;;7.32;57.45;94037.81;5052559;28;20182;-75
2021/12/02 07:55:57;;;;;;;30.67;24.93;;;;;;;7.27;58.72;94050.63;5055318;28;20440;-75
2021/12/02 07:58:24;;;;;;;27.57;23.90;;;;;;;7.85;55.86;94048.56;5064494;28;20421;-74
2021/12/02 08:00:50;;;;;;;27.10;21.60;;;;;;;7.73;56.15;94050.13;5052561;28;20418;-74
2021/12/02 08:03:16;;;;;;;24.23;21.80;;;;;;;7.88;56.50;94063.84;5058401;28;20420;-74
2021/12/02 08:05:42;;;;;;;21.97;18.93;;;;;;;7.85;56.16;94051.19;5058509;28;20425;-75
2021/12/02 08:08:09;;;;;;;27.80;21.17;;;;;;;8.10;55.63;94045.50;5064191;28;20452;-75
2021/12/02 08:10:36;;;;;;;21.67;17.67;;;;;;;7.96;56.01;94050.63;5046580;28;20782;-74
2021/12/02 08:13:03;;;;;;;26.73;19.40;;;;;;;8.08;56.55;94048.31;5055969;28;20421;-75
2021/12/02 08:15:30;;;;;;;20.00;15.67;;;;;;;7.99;55.54;94045.06;5065263;28;20563;-75
2021/12/02 08:17:56;;;;;;;20.17;15.90;;;;;;;8.19;54.69;94041.72;5053607;28;20781;-74
2021/12/02 08:20:23;;;;;;;16.63;14.80;;;;;;;8.31;54.65;94036.75;5057798;28;20538;-75
2021/12/02 08:22:49;;;;;;;14.23;12.73;;;;;;;8.07;54.45;94033.66;5060779;28;20482;-74
2021/12/02 08:25:15;;;;;;;15.03;12.70;;;;;;;8.39;53.99;94037.41;5060697;28;20421;-74
2021/12/02 08:27:41;;;;;;;16.00;10.80;;;;;;;7.80;55.69;94050.97;5057000;28;20307;-75
2021/12/02 08:30:10;;;;;;;11.40;10.20;;;;;;;8.15;54.45;94048.31;5063606;28;20435;-74
2021/12/02 08:32:38;;;;;;;11.03;9.60;;;;;;;8.04;53.26;94054.09;5065797;28;20171;-75
2021/12/02 08:35:04;;;;;;;8.90;8.00;;;;;;;8.14;52.64;94046.75;5060972;28;20421;-75
2021/12/02 08:37:32;;;;;;;9.60;8.47;;;;;;;8.63;52.01;94037.09;5065805;28;20455;-75
2021/12/02 08:40:00;;;;;;;15.50;9.97;;;;;;;8.62;52.72;94032.88;5060554;28;20429;-75
2021/12/02 08:42:27;;;;;;;11.67;10.47;;;;;;;8.62;52.01;94032.88;5063075;28;20469;-75
2021/12/02 08:44:54;;;;;;;11.87;10.30;;;;;;;9.00;51.04;94025.31;5059084;28;20429;-75
2021/12/02 08:47:22;;;;;;;13.17;11.20;;;;;;;9.04;51.22;94026.50;5058459;28;20547;-74
2021/12/02 08:49:52;;;;;;;16.00;12.43;;;;;;;9.02;52.05;94025.13;5060075;28;21019;-75
2021/12/02 08:52:17;;;;;;;13.67;10.80;;;;;;;8.49;52.00;94026.63;5066294;28;20447;-75
2021/12/02 08:54:43;;;;;;;12.13;9.70;;;;;;;8.60;51.81;94010.41;5059521;28;20422;-75
2021/12/02 08:57:08;;;;;;;11.10;9.53;;;;;;;8.99;51.12;94018.47;5063603;28;20200;-75
2021/12/02 08:59:34;;;;;;;10.30;9.20;;;;;;;9.04;51.04;94004.84;5064526;28;20238;-75
2021/12/02 09:02:00;;;;;;;11.07;7.50;;;;;;;9.10;50.20;94004.81;5063039;28;20174;-75
2021/12/02 09:04:25;;;;;;;10.60;7.63;;;;;;;9.37;50.11;94004.81;5062959;28;20171;-75
2021/12/02 09:06:51;;;;;;;12.93;8.60;;;;;;;9.73;48.94;94003.53;5052278;28;20207;-75
2021/12/02 09:09:16;;;;;;;15.90;8.07;;;;;;;10.12;48.17;93991.38;5062126;28;20210;-75
2021/12/02 09:11:41;;;;;;;10.47;9.10;;;;;;;10.12;49.61;94002.63;5060603;28;20182;-76
2021/12/02 09:14:07;;;;;;;12.53;10.37;;;;;;;10.32;49.11;93986.88;5060349;28;20215;-75
2021/12/02 09:16:33;;;;;;;10.50;9.40;;;;;;;10.70;46.13;93983.47;5061172;28;20183;-75
2021/12/02 09:18:59;;;;;;;14.27;9.47;;;;;;;10.32;47.66;93971.19;5062787;28;20237;-75
2021/12/02 09:21:25;;;;;;;12.60;9.90;;;;;;;11.01;46.83;93979.22;5063576;28;20433;-75
2021/12/02 09:23:52;;;;;;;12.70;9.33;;;;;;;11.51;43.71;93987.06;5059508;28;20794;-75
2021/12/02 09:26:18;;;;;;;10.27;9.27;;;;;;;11.49;46.08;93978.59;5060708;28;20440;-75
2021/12/02 09:28:50;;;;;;;9.87;8.83;;;;;;;12.17;43.67;93971.63;5057991;28;20454;-76
2021/12/02 09:31:16;;;;;;;17.53;10.50;;;;;;;12.50;44.15;93949.41;5056797;28;20314;-75
2021/12/02 09:33:42;;;;;;;10.87;9.50;;;;;;;12.59;42.01;93968.28;5058096;28;20438;-75
2021/12/02 09:36:07;;;;;;;10.93;9.67;;;;;;;12.25;43.92;93958.22;5060984;28;20231;-75
2021/12/02 09:38:32;;;;;;;15.80;12.00;;;;;;;12.75;42.90;93974.69;5057245;28;20178;-75
2021/12/02 09:40:58;;;;;;;13.03;10.37;;;;;;;13.12;42.23;93974.56;5059742;28;20179;-75
2021/12/02 09:43:23;;;;;;;12.03;9.83;;;;;;;13.22;41.33;93956.41;5056317;28;20175;-75
2021/12/02 09:45:49;;;;;;;11.30;9.47;;;;;;;13.55;39.45;93971.66;5052095;28;20248;-75
2021/12/02 09:48:14;;;;;;;12.33;8.43;;;;;;;13.17;40.62;93953.69;5057645;28;20257;-75
2021/12/02 09:50:52;;;;;;;12.17;9.83;;;;;;;13.68;39.92;93954.84;5050117;28;20178;-75
2021/12/02 09:53:21;;;;;;;12.00;9.90;;;;;;;13.87;40.16;93947.63;5050355;28;20175;-76
2021/12/02 09:56:14;;;;;;;11.50;9.43;;;;;;;13.32;40.01;93948.81;5057069;28;20959;-75
2021/12/02 09:58:33;;;;;;;12.30;9.90;;;;;;;13.53;39.09;93939.53;5049055;28;20480;-75
2021/12/02 10:06:07;;;;;;;10.80;9.43;;;;;;;13.76;38.55;93940.53;5055023;28;20182;-75
2021/12/02 10:08:41;;;;;;;13.17;7.90;;;;;;;13.43;38.08;93926.97;5048384;28;20528;-76
2021/12/02 10:11:10;;;;;;;10.87;8.70;;;;;;;13.25;39.63;93919.97;5054138;28;20445;-75
2021/12/02 10:13:59;;;;;;;11.23;9.50;;;;;;;13.63;40.27;93916.09;5054452;28;20448;-75
2021/12/02 10:16:28;;;;;;;11.37;10.37;;;;;;;13.73;39.32;93914.69;5055603;28;20459;-75
2021/12/02 10:19:09;;;;;;;11.33;9.53;;;;;;;13.45;39.05;93913.63;5056411;28;20465;-76
2021/12/02 10:21:47;;;;;;;11.67;10.17;;;;;;;14.14;38.92;93911.06;5048905;28;20449;-75
2021/12/02 10:24:16;;;;;;;11.50;8.60;;;;;;;14.25;37.07;93920.72;5059186;28;20421;-76
2021/12/02 10:26:49;;;;;;;9.90;7.57;;;;;;;12.66;39.60;93919.13;5050885;28;20438;-75
2021/12/02 10:29:17;;;;;;;10.50;7.93;;;;;;;12.08;41.02;93913.47;5045913;28;20553;-75
2021/12/02 10:31:47;;;;;;;11.43;10.20;;;;;;;12.97;40.46;93915.38;5052989;28;20434;-75
2021/12/02 10:34:16;;;;;;;11.57;7.73;;;;;;;12.21;40.43;93890.69;5050271;28;20425;-75
2021/12/02 10:36:44;;;;;;;9.43;8.50;;;;;;;12.88;41.10;93906.25;5055814;28;20465;-75
2021/12/02 10:39:09;;;;;;;14.37;9.83;;;;;;;13.58;38.79;93897.59;5058636;28;20434;-76
2021/12/02 10:41:35;;;;;;;10.00;7.87;;;;;;;13.25;38.76;93893.69;5062523;28;20536;-75
2021/12/02 10:44:05;;;;;;;9.43;7.70;;;;;;;12.37;40.23;93889.25;5056287;28;20201;-75
2021/12/02 10:46:32;;;;;;;10.83;9.83;;;;;;;12.60;41.00;93881.44;5048233;28;20418;-75
2021/12/02 10:48:57;;;;;;;10.57;9.47;;;;;;;12.97;39.91;93875.19;5051519;28;21392;-76
2021/12/02 10:51:37;;;;;;;12.13;10.23;;;;;;;13.94;38.89;93863.31;5050309;28;20457;-75
2021/12/02 10:54:12;;;;;;;11.40;9.60;;;;;;;13.56;38.08;93856.78;5050123;28;20176;-76
2021/12/02 10:56:38;;;;;;;10.37;9.20;;;;;;;14.24;38.01;93863.84;5050480;28;20448;-75
2021/12/02 10:59:41;;;;;;;10.83;9.53;;;;;;;14.94;37.19;93861.88;5052180;28;20432;-76
2021/12/02 11:02:20;;;;;;;10.07;9.07;;;;;;;15.32;36.43;93859.50;5046047;28;20948;-76
2021/12/02 11:05:01;;;;;;;15.20;10.80;;;;;;;15.96;35.36;93845.81;5054310;28;20429;-75
2021/12/02 11:07:35;;;;;;;15.37;9.57;;;;;;;15.80;35.88;93845.66;5045257;28;20488;-76
2021/12/02 11:10:14;;;;;;;12.87;11.00;;;;;;;16.52;33.81;93832.34;5060135;28;20428;-76
2021/12/02 11:12:42;;;;;;;11.60;8.63;;;;;;;15.63;34.37;93829.03;5050009;28;20428;-76
2021/12/02 11:15:29;;;;;;;6.57;5.90;;;;;;;13.28;38.90;93834.66;5044458;28;20445;-76
2021/12/02 11:17:58;;;;;;;5.50;4.30;;;;;;;11.89;41.39;93844.53;5044569;28;20429;-75
2021/12/02 11:20:28;;;;;;;9.27;8.30;;;;;;;12.34;41.06;93824.13;5052987;28;20500;-75
2021/12/02 11:22:59;;;;;;;9.97;7.90;;;;;;;13.08;39.68;93825.28;5049258;28;20433;-75
2021/12/02 11:25:25;;;;;;;10.63;9.17;;;;;;;13.85;39.89;93818.19;5054936;28;20451;-76
2021/12/02 11:27:53;;;;;;;9.67;8.20;;;;;;;13.51;38.62;93833.00;5049419;28;20460;-76
2021/12/02 11:30:21;;;;;;;9.33;8.30;;;;;;;14.28;37.81;93823.91;5056089;28;20479;-76
2021/12/02 11:32:48;;;;;;;10.83;8.10;;;;;;;14.04;38.66;93821.41;5055121;28;20434;-75
2021/12/02 11:35:16;;;;;;;18.60;9.70;;;;;;;14.59;37.50;93812.88;5049343;28;20409;-76
2021/12/02 11:37:45;;;;;;;11.60;8.20;;;;;;;15.27;36.44;93798.81;5058783;28;20440;-76
2021/12/02 11:40:18;;;;;;;15.20;8.17;;;;;;;15.65;35.19;93808.53;5060186;28;20512;-76
2021/12/02 11:42:45;;;;;;;8.77;6.30;;;;;;;14.58;35.83;93806.03;5059159;28;20429;-76
2021/12/02 11:45:13;;;;;;;15.37;8.03;;;;;;;14.33;36.92;93802.97;5058837;28;20415;-76
2021/12/02 11:47:40;;;;;;;10.20;8.87;;;;;;;15.60;35.97;93805.81;5056208;28;20532;-76
2021/12/02 11:50:07;;;;;;;9.70;6.57;;;;;;;15.41;34.89;93803.47;5062041;28;20417;-77
2021/12/02 11:52:38;;;;;;;9.10;8.20;;;;;;;14.42;37.19;93796.28;5068767;28;20962;-76
2021/12/02 11:55:12;;;;;;;11.50;9.37;;;;;;;14.30;37.13;93788.44;5059683;28;20413;-76